Terminal Aerodrome Forecast
Issued by NWS

Home | Current Version | Previous Version | Text Only | Print | Product List | Glossary On
Versions: 1 2 3 4 5 6 7 8 9 10 11 12 13 14
000
FTUS45 KTFX 041130
TAFGTF
TAF
KGTF 041130Z 0412/0512 23011KT P6SM SCT100 BKN150
     FM041900 25010G17KT P6SM SCT090
     FM050200 23007KT P6SM SCT090=

USA.gov is the U.S. government's official web portal to all federal, state and local government web resources and services.